sensor_id;sensor_type;location;lat;lon;timestamp;P1;durP1;ratioP1;P2;durP2;ratioP2
72584;SDS011;73873;40.084;32.908;2024-01-11T00:01:48;10.45;;;4.10;;
72584;SDS011;73873;40.084;32.908;2024-01-11T00:04:15;11.45;;;4.10;;
72584;SDS011;73873;40.084;32.908;2024-01-11T00:06:43;9.77;;;3.88;;
72584;SDS011;73873;40.084;32.908;2024-01-11T00:09:11;8.73;;;3.28;;
72584;SDS011;73873;40.084;32.908;2024-01-11T00:11:37;9.98;;;3.63;;
72584;SDS011;73873;40.084;32.908;2024-01-11T00:14:05;8.93;;;3.53;;
72584;SDS011;73873;40.084;32.908;2024-01-11T00:16:32;9.27;;;3.90;;
72584;SDS011;73873;40.084;32.908;2024-01-11T00:18:59;11.43;;;3.67;;
72584;SDS011;73873;40.084;32.908;2024-01-11T00:21:26;10.75;;;3.90;;
72584;SDS011;73873;40.084;32.908;2024-01-11T00:23:53;9.93;;;3.60;;
72584;SDS011;73873;40.084;32.908;2024-01-11T00:26:20;10.57;;;3.58;;
72584;SDS011;73873;40.084;32.908;2024-01-11T00:28:47;9.00;;;3.53;;
72584;SDS011;73873;40.084;32.908;2024-01-11T00:31:14;10.05;;;3.75;;
72584;SDS011;73873;40.084;32.908;2024-01-11T00:33:41;8.82;;;3.40;;
72584;SDS011;73873;40.084;32.908;2024-01-11T00:36:08;8.98;;;3.50;;
72584;SDS011;73873;40.084;32.908;2024-01-11T00:38:35;10.35;;;3.80;;
72584;SDS011;73873;40.084;32.908;2024-01-11T00:41:02;8.48;;;3.50;;
72584;SDS011;73873;40.084;32.908;2024-01-11T00:43:29;9.25;;;3.42;;
72584;SDS011;73873;40.084;32.908;2024-01-11T00:45:56;10.07;;;3.47;;
72584;SDS011;73873;40.084;32.908;2024-01-11T00:48:23;10.32;;;3.70;;
72584;SDS011;73873;40.084;32.908;2024-01-11T00:50:50;8.75;;;3.80;;
72584;SDS011;73873;40.084;32.908;2024-01-11T00:53:17;8.35;;;3.30;;
72584;SDS011;73873;40.084;32.908;2024-01-11T00:55:44;9.07;;;3.35;;
72584;SDS011;73873;40.084;32.908;2024-01-11T00:58:11;8.70;;;3.75;;
72584;SDS011;73873;40.084;32.908;2024-01-11T01:00:38;9.25;;;3.63;;
72584;SDS011;73873;40.084;32.908;2024-01-11T01:03:05;8.40;;;3.30;;
72584;SDS011;73873;40.084;32.908;2024-01-11T01:05:31;8.80;;;3.40;;
72584;SDS011;73873;40.084;32.908;2024-01-11T01:07:58;8.57;;;3.45;;
72584;SDS011;73873;40.084;32.908;2024-01-11T01:10:25;8.30;;;2.80;;
72584;SDS011;73873;40.084;32.908;2024-01-11T01:12:52;10.07;;;3.13;;
72584;SDS011;73873;40.084;32.908;2024-01-11T01:15:19;7.88;;;3.33;;
72584;SDS011;73873;40.084;32.908;2024-01-11T01:17:46;7.32;;;3.15;;
72584;SDS011;73873;40.084;32.908;2024-01-11T01:20:13;7.53;;;3.00;;
72584;SDS011;73873;40.084;32.908;2024-01-11T01:22:40;8.55;;;2.60;;
72584;SDS011;73873;40.084;32.908;2024-01-11T01:25:07;8.63;;;2.80;;
72584;SDS011;73873;40.084;32.908;2024-01-11T01:27:34;6.80;;;2.60;;
72584;SDS011;73873;40.084;32.908;2024-01-11T01:30:01;7.35;;;3.10;;
72584;SDS011;73873;40.084;32.908;2024-01-11T01:32:28;9.35;;;2.60;;
72584;SDS011;73873;40.084;32.908;2024-01-11T01:34:55;6.75;;;2.92;;
72584;SDS011;73873;40.084;32.908;2024-01-11T01:37:22;7.88;;;2.72;;
72584;SDS011;73873;40.084;32.908;2024-01-11T01:39:49;7.45;;;2.75;;
72584;SDS011;73873;40.084;32.908;2024-01-11T01:42:16;8.13;;;2.95;;
72584;SDS011;73873;40.084;32.908;2024-01-11T01:44:43;7.75;;;2.53;;
72584;SDS011;73873;40.084;32.908;2024-01-11T01:47:10;6.63;;;2.47;;
72584;SDS011;73873;40.084;32.908;2024-01-11T01:49:37;7.88;;;2.53;;
72584;SDS011;73873;40.084;32.908;2024-01-11T01:52:05;6.55;;;2.35;;
72584;SDS011;73873;40.084;32.908;2024-01-11T01:54:33;6.68;;;2.20;;
72584;SDS011;73873;40.084;32.908;2024-01-11T01:57:00;6.43;;;2.47;;
72584;SDS011;73873;40.084;32.908;2024-01-11T01:59:29;6.25;;;2.25;;
72584;SDS011;73873;40.084;32.908;2024-01-11T02:01:57;7.30;;;2.45;;
72584;SDS011;73873;40.084;32.908;2024-01-11T02:04:25;6.63;;;2.63;;
72584;SDS011;73873;40.084;32.908;2024-01-11T02:06:52;6.55;;;2.30;;
72584;SDS011;73873;40.084;32.908;2024-01-11T02:09:20;7.82;;;2.55;;
72584;SDS011;73873;40.084;32.908;2024-01-11T02:11:48;6.65;;;2.33;;
72584;SDS011;73873;40.084;32.908;2024-01-11T02:14:15;7.15;;;2.40;;
72584;SDS011;73873;40.084;32.908;2024-01-11T02:16:42;6.20;;;2.47;;
72584;SDS011;73873;40.084;32.908;2024-01-11T02:19:10;6.05;;;2.30;;
72584;SDS011;73873;40.084;32.908;2024-01-11T02:21:43;6.18;;;2.40;;
72584;SDS011;73873;40.084;32.908;2024-01-11T02:24:12;5.93;;;2.30;;
72584;SDS011;73873;40.084;32.908;2024-01-11T02:29:25;6.00;;;2.40;;
72584;SDS011;73873;40.084;32.908;2024-01-11T02:31:52;6.88;;;2.47;;
72584;SDS011;73873;40.084;32.908;2024-01-11T02:34:20;6.57;;;2.40;;
72584;SDS011;73873;40.084;32.908;2024-01-11T02:36:47;6.22;;;2.30;;
72584;SDS011;73873;40.084;32.908;2024-01-11T02:39:14;6.38;;;2.20;;
72584;SDS011;73873;40.084;32.908;2024-01-11T02:41:43;5.90;;;2.28;;
72584;SDS011;73873;40.084;32.908;2024-01-11T02:44:11;7.18;;;2.50;;
72584;SDS011;73873;40.084;32.908;2024-01-11T02:49:35;6.22;;;2.05;;
72584;SDS011;73873;40.084;32.908;2024-01-11T02:52:03;5.20;;;1.92;;
72584;SDS011;73873;40.084;32.908;2024-01-11T02:54:30;5.93;;;2.00;;
72584;SDS011;73873;40.084;32.908;2024-01-11T02:56:57;6.25;;;2.30;;
72584;SDS011;73873;40.084;32.908;2024-01-11T02:59:23;5.85;;;2.00;;
72584;SDS011;73873;40.084;32.908;2024-01-11T03:01:50;6.40;;;2.38;;
72584;SDS011;73873;40.084;32.908;2024-01-11T03:04:17;5.78;;;2.03;;
72584;SDS011;73873;40.084;32.908;2024-01-11T03:06:44;5.43;;;2.13;;
72584;SDS011;73873;40.084;32.908;2024-01-11T03:09:11;5.57;;;2.03;;
72584;SDS011;73873;40.084;32.908;2024-01-11T03:11:38;5.88;;;1.80;;
72584;SDS011;73873;40.084;32.908;2024-01-11T03:14:04;5.10;;;1.92;;
72584;SDS011;73873;40.084;32.908;2024-01-11T03:16:31;5.35;;;1.90;;
72584;SDS011;73873;40.084;32.908;2024-01-11T03:18:58;5.53;;;1.88;;
72584;SDS011;73873;40.084;32.908;2024-01-11T03:21:25;5.07;;;1.73;;
72584;SDS011;73873;40.084;32.908;2024-01-11T03:23:52;6.00;;;2.00;;
72584;SDS011;73873;40.084;32.908;2024-01-11T03:26:19;5.07;;;1.80;;
72584;SDS011;73873;40.084;32.908;2024-01-11T03:28:46;6.93;;;2.05;;
72584;SDS011;73873;40.084;32.908;2024-01-11T03:31:13;5.50;;;1.73;;
72584;SDS011;73873;40.084;32.908;2024-01-11T03:33:40;5.30;;;2.13;;
72584;SDS011;73873;40.084;32.908;2024-01-11T03:36:10;5.40;;;2.10;;
72584;SDS011;73873;40.084;32.908;2024-01-11T03:38:38;5.93;;;2.50;;
72584;SDS011;73873;40.084;32.908;2024-01-11T03:41:08;6.90;;;2.30;;
72584;SDS011;73873;40.084;32.908;2024-01-11T03:43:36;6.65;;;2.75;;
72584;SDS011;73873;40.084;32.908;2024-01-11T03:46:03;6.85;;;2.70;;
72584;SDS011;73873;40.084;32.908;2024-01-11T03:48:30;8.30;;;2.78;;
72584;SDS011;73873;40.084;32.908;2024-01-11T03:50:58;5.63;;;2.28;;
72584;SDS011;73873;40.084;32.908;2024-01-11T03:53:24;5.45;;;1.95;;
72584;SDS011;73873;40.084;32.908;2024-01-11T03:55:51;5.35;;;2.10;;
72584;SDS011;73873;40.084;32.908;2024-01-11T03:58:18;5.38;;;2.10;;
72584;SDS011;73873;40.084;32.908;2024-01-11T04:00:45;5.32;;;2.00;;
72584;SDS011;73873;40.084;32.908;2024-01-11T04:03:12;5.57;;;2.10;;
72584;SDS011;73873;40.084;32.908;2024-01-11T04:05:39;5.50;;;2.03;;
72584;SDS011;73873;40.084;32.908;2024-01-11T04:08:07;5.93;;;1.95;;
72584;SDS011;73873;40.084;32.908;2024-01-11T04:10:33;5.78;;;2.10;;
72584;SDS011;73873;40.084;32.908;2024-01-11T04:13:00;5.68;;;2.20;;
72584;SDS011;73873;40.084;32.908;2024-01-11T04:15:27;6.25;;;1.98;;
72584;SDS011;73873;40.084;32.908;2024-01-11T04:17:54;6.75;;;2.20;;
72584;SDS011;73873;40.084;32.908;2024-01-11T04:20:21;5.50;;;2.00;;
72584;SDS011;73873;40.084;32.908;2024-01-11T04:22:48;5.72;;;2.15;;
72584;SDS011;73873;40.084;32.908;2024-01-11T04:25:15;6.75;;;2.42;;
72584;SDS011;73873;40.084;32.908;2024-01-11T04:27:42;6.82;;;2.35;;
72584;SDS011;73873;40.084;32.908;2024-01-11T04:30:09;6.95;;;2.40;;
72584;SDS011;73873;40.084;32.908;2024-01-11T04:32:36;5.78;;;2.20;;
72584;SDS011;73873;40.084;32.908;2024-01-11T04:35:03;6.50;;;2.20;;
72584;SDS011;73873;40.084;32.908;2024-01-11T04:37:31;6.50;;;2.70;;
72584;SDS011;73873;40.084;32.908;2024-01-11T04:39:57;7.30;;;2.47;;
72584;SDS011;73873;40.084;32.908;2024-01-11T04:42:24;6.00;;;2.35;;
72584;SDS011;73873;40.084;32.908;2024-01-11T04:44:51;5.57;;;2.25;;
72584;SDS011;73873;40.084;32.908;2024-01-11T04:47:18;7.03;;;2.60;;
72584;SDS011;73873;40.084;32.908;2024-01-11T04:49:45;6.53;;;2.50;;
72584;SDS011;73873;40.084;32.908;2024-01-11T04:52:12;6.97;;;2.42;;
72584;SDS011;73873;40.084;32.908;2024-01-11T04:54:39;7.10;;;2.85;;
72584;SDS011;73873;40.084;32.908;2024-01-11T04:57:05;8.20;;;2.85;;
72584;SDS011;73873;40.084;32.908;2024-01-11T04:59:32;7.38;;;2.67;;
72584;SDS011;73873;40.084;32.908;2024-01-11T05:01:59;7.32;;;2.38;;
72584;SDS011;73873;40.084;32.908;2024-01-11T05:04:26;7.47;;;2.88;;
72584;SDS011;73873;40.084;32.908;2024-01-11T05:06:53;6.47;;;2.38;;
72584;SDS011;73873;40.084;32.908;2024-01-11T05:09:19;6.78;;;2.65;;
72584;SDS011;73873;40.084;32.908;2024-01-11T05:11:46;7.53;;;2.60;;
72584;SDS011;73873;40.084;32.908;2024-01-11T05:14:13;7.38;;;2.97;;
72584;SDS011;73873;40.084;32.908;2024-01-11T05:16:40;7.28;;;2.72;;
72584;SDS011;73873;40.084;32.908;2024-01-11T05:19:07;8.48;;;3.30;;
72584;SDS011;73873;40.084;32.908;2024-01-11T05:21:34;8.32;;;3.00;;
72584;SDS011;73873;40.084;32.908;2024-01-11T05:24:01;7.30;;;2.72;;
72584;SDS011;73873;40.084;32.908;2024-01-11T05:26:28;7.20;;;2.50;;
72584;SDS011;73873;40.084;32.908;2024-01-11T05:28:55;7.65;;;2.97;;
72584;SDS011;73873;40.084;32.908;2024-01-11T05:31:22;6.65;;;2.45;;
72584;SDS011;73873;40.084;32.908;2024-01-11T05:33:49;6.70;;;2.35;;
72584;SDS011;73873;40.084;32.908;2024-01-11T05:36:16;6.47;;;2.63;;
72584;SDS011;73873;40.084;32.908;2024-01-11T05:38:44;9.55;;;2.60;;
72584;SDS011;73873;40.084;32.908;2024-01-11T05:41:12;6.28;;;2.40;;
72584;SDS011;73873;40.084;32.908;2024-01-11T05:43:39;6.43;;;2.25;;
72584;SDS011;73873;40.084;32.908;2024-01-11T05:46:06;7.30;;;2.45;;
72584;SDS011;73873;40.084;32.908;2024-01-11T05:48:33;6.10;;;2.20;;
72584;SDS011;73873;40.084;32.908;2024-01-11T05:51:00;6.82;;;2.55;;
72584;SDS011;73873;40.084;32.908;2024-01-11T05:53:27;6.75;;;2.20;;
72584;SDS011;73873;40.084;32.908;2024-01-11T05:55:54;6.15;;;2.30;;
72584;SDS011;73873;40.084;32.908;2024-01-11T05:58:21;6.18;;;2.45;;
72584;SDS011;73873;40.084;32.908;2024-01-11T06:00:48;7.40;;;2.50;;
72584;SDS011;73873;40.084;32.908;2024-01-11T06:03:15;6.85;;;2.88;;
72584;SDS011;73873;40.084;32.908;2024-01-11T06:05:42;7.35;;;2.55;;
72584;SDS011;73873;40.084;32.908;2024-01-11T06:08:09;6.00;;;2.58;;
72584;SDS011;73873;40.084;32.908;2024-01-11T06:10:36;6.22;;;2.47;;
72584;SDS011;73873;40.084;32.908;2024-01-11T06:13:03;6.40;;;2.40;;
72584;SDS011;73873;40.084;32.908;2024-01-11T06:15:30;7.07;;;2.45;;
72584;SDS011;73873;40.084;32.908;2024-01-11T06:17:57;6.80;;;2.40;;
72584;SDS011;73873;40.084;32.908;2024-01-11T06:20:24;6.35;;;2.17;;
72584;SDS011;73873;40.084;32.908;2024-01-11T06:22:51;7.30;;;2.80;;
72584;SDS011;73873;40.084;32.908;2024-01-11T06:25:18;7.63;;;2.55;;
72584;SDS011;73873;40.084;32.908;2024-01-11T06:27:46;5.97;;;2.55;;
72584;SDS011;73873;40.084;32.908;2024-01-11T06:30:13;7.45;;;2.45;;
72584;SDS011;73873;40.084;32.908;2024-01-11T06:32:40;8.18;;;2.80;;
72584;SDS011;73873;40.084;32.908;2024-01-11T06:35:07;6.68;;;2.80;;
72584;SDS011;73873;40.084;32.908;2024-01-11T06:37:35;7.20;;;2.72;;
72584;SDS011;73873;40.084;32.908;2024-01-11T06:40:01;6.40;;;2.83;;
72584;SDS011;73873;40.084;32.908;2024-01-11T06:42:29;7.00;;;2.58;;
72584;SDS011;73873;40.084;32.908;2024-01-11T06:44:57;6.07;;;2.40;;
72584;SDS011;73873;40.084;32.908;2024-01-11T06:47:24;8.15;;;2.53;;
72584;SDS011;73873;40.084;32.908;2024-01-11T06:49:53;8.32;;;2.95;;
72584;SDS011;73873;40.084;32.908;2024-01-11T06:52:20;7.55;;;2.75;;
72584;SDS011;73873;40.084;32.908;2024-01-11T06:54:47;5.93;;;2.38;;
72584;SDS011;73873;40.084;32.908;2024-01-11T06:57:14;6.72;;;2.45;;
72584;SDS011;73873;40.084;32.908;2024-01-11T06:59:40;5.85;;;2.40;;
72584;SDS011;73873;40.084;32.908;2024-01-11T07:02:07;5.70;;;2.35;;
72584;SDS011;73873;40.084;32.908;2024-01-11T07:04:34;5.57;;;2.30;;
72584;SDS011;73873;40.084;32.908;2024-01-11T07:07:01;6.38;;;2.88;;
72584;SDS011;73873;40.084;32.908;2024-01-11T07:09:28;6.88;;;2.40;;
72584;SDS011;73873;40.084;32.908;2024-01-11T07:11:55;7.25;;;2.60;;
72584;SDS011;73873;40.084;32.908;2024-01-11T07:14:23;6.28;;;2.50;;
72584;SDS011;73873;40.084;32.908;2024-01-11T07:16:50;6.82;;;2.60;;
72584;SDS011;73873;40.084;32.908;2024-01-11T07:19:16;7.15;;;2.65;;
72584;SDS011;73873;40.084;32.908;2024-01-11T07:21:43;6.93;;;2.72;;
72584;SDS011;73873;40.084;32.908;2024-01-11T07:24:10;6.28;;;2.42;;
72584;SDS011;73873;40.084;32.908;2024-01-11T07:26:37;6.60;;;2.92;;
72584;SDS011;73873;40.084;32.908;2024-01-11T07:29:04;7.85;;;2.58;;
72584;SDS011;73873;40.084;32.908;2024-01-11T07:31:31;6.72;;;2.65;;
72584;SDS011;73873;40.084;32.908;2024-01-11T07:33:58;6.20;;;2.20;;
72584;SDS011;73873;40.084;32.908;2024-01-11T07:36:26;7.40;;;2.60;;
72584;SDS011;73873;40.084;32.908;2024-01-11T07:38:53;5.43;;;2.17;;
72584;SDS011;73873;40.084;32.908;2024-01-11T07:41:21;6.57;;;2.45;;
72584;SDS011;73873;40.084;32.908;2024-01-11T07:43:48;5.10;;;2.15;;
72584;SDS011;73873;40.084;32.908;2024-01-11T07:46:20;5.93;;;2.47;;
72584;SDS011;73873;40.084;32.908;2024-01-11T07:49:01;6.35;;;2.70;;
72584;SDS011;73873;40.084;32.908;2024-01-11T07:51:29;6.28;;;2.38;;
72584;SDS011;73873;40.084;32.908;2024-01-11T07:53:56;7.25;;;2.78;;
72584;SDS011;73873;40.084;32.908;2024-01-11T07:56:23;6.05;;;2.60;;
72584;SDS011;73873;40.084;32.908;2024-01-11T07:58:50;7.00;;;2.72;;
72584;SDS011;73873;40.084;32.908;2024-01-11T08:01:17;6.07;;;2.38;;
72584;SDS011;73873;40.084;32.908;2024-01-11T08:03:44;5.80;;;2.35;;
72584;SDS011;73873;40.084;32.908;2024-01-11T08:06:11;6.55;;;2.47;;
72584;SDS011;73873;40.084;32.908;2024-01-11T08:08:39;6.18;;;2.55;;
72584;SDS011;73873;40.084;32.908;2024-01-11T08:11:07;5.70;;;2.40;;
72584;SDS011;73873;40.084;32.908;2024-01-11T08:13:34;7.65;;;3.00;;
72584;SDS011;73873;40.084;32.908;2024-01-11T08:16:01;6.30;;;2.75;;
72584;SDS011;73873;40.084;32.908;2024-01-11T08:18:28;6.75;;;2.75;;
72584;SDS011;73873;40.084;32.908;2024-01-11T08:20:56;7.35;;;2.80;;
72584;SDS011;73873;40.084;32.908;2024-01-11T08:23:23;6.40;;;2.75;;
72584;SDS011;73873;40.084;32.908;2024-01-11T08:25:49;7.25;;;2.97;;
72584;SDS011;73873;40.084;32.908;2024-01-11T08:28:16;6.78;;;2.88;;
72584;SDS011;73873;40.084;32.908;2024-01-11T08:30:43;7.78;;;3.13;;
72584;SDS011;73873;40.084;32.908;2024-01-11T08:33:12;8.82;;;3.30;;
72584;SDS011;73873;40.084;32.908;2024-01-11T08:35:39;8.47;;;3.47;;
72584;SDS011;73873;40.084;32.908;2024-01-11T08:38:06;7.30;;;2.92;;
72584;SDS011;73873;40.084;32.908;2024-01-11T08:40:33;6.85;;;3.17;;
72584;SDS011;73873;40.084;32.908;2024-01-11T08:43:00;7.75;;;3.08;;
72584;SDS011;73873;40.084;32.908;2024-01-11T08:45:27;7.55;;;2.95;;
72584;SDS011;73873;40.084;32.908;2024-01-11T08:47:55;6.23;;;2.70;;
72584;SDS011;73873;40.084;32.908;2024-01-11T08:50:23;6.40;;;3.00;;
72584;SDS011;73873;40.084;32.908;2024-01-11T08:52:52;6.78;;;2.80;;
72584;SDS011;73873;40.084;32.908;2024-01-11T08:55:19;7.32;;;3.13;;
72584;SDS011;73873;40.084;32.908;2024-01-11T08:57:46;7.32;;;3.00;;
72584;SDS011;73873;40.084;32.908;2024-01-11T09:00:13;8.60;;;3.07;;
72584;SDS011;73873;40.084;32.908;2024-01-11T09:02:40;7.07;;;2.70;;
72584;SDS011;73873;40.084;32.908;2024-01-11T09:05:07;7.22;;;2.50;;
72584;SDS011;73873;40.084;32.908;2024-01-11T09:07:36;5.95;;;2.42;;
72584;SDS011;73873;40.084;32.908;2024-01-11T09:10:03;6.35;;;2.75;;
72584;SDS011;73873;40.084;32.908;2024-01-11T09:12:30;6.63;;;2.63;;
72584;SDS011;73873;40.084;32.908;2024-01-11T09:14:57;6.32;;;2.40;;
72584;SDS011;73873;40.084;32.908;2024-01-11T09:17:23;6.72;;;2.60;;
72584;SDS011;73873;40.084;32.908;2024-01-11T09:19:51;6.75;;;2.83;;
72584;SDS011;73873;40.084;32.908;2024-01-11T09:22:18;7.65;;;3.05;;
72584;SDS011;73873;40.084;32.908;2024-01-11T09:24:45;7.40;;;2.90;;
72584;SDS011;73873;40.084;32.908;2024-01-11T09:27:12;6.00;;;3.00;;
72584;SDS011;73873;40.084;32.908;2024-01-11T09:29:42;8.00;;;3.28;;
72584;SDS011;73873;40.084;32.908;2024-01-11T09:32:10;7.30;;;2.95;;
72584;SDS011;73873;40.084;32.908;2024-01-11T09:34:37;6.45;;;2.30;;
72584;SDS011;73873;40.084;32.908;2024-01-11T09:37:04;5.20;;;2.10;;
72584;SDS011;73873;40.084;32.908;2024-01-11T09:39:31;6.20;;;2.58;;
72584;SDS011;73873;40.084;32.908;2024-01-11T09:41:59;5.78;;;2.10;;
72584;SDS011;73873;40.084;32.908;2024-01-11T09:44:33;5.18;;;1.90;;
72584;SDS011;73873;40.084;32.908;2024-01-11T09:47:00;5.47;;;2.30;;
72584;SDS011;73873;40.084;32.908;2024-01-11T09:49:29;4.87;;;2.10;;
72584;SDS011;73873;40.084;32.908;2024-01-11T09:51:58;7.30;;;2.42;;
72584;SDS011;73873;40.084;32.908;2024-01-11T09:54:26;5.43;;;2.30;;
72584;SDS011;73873;40.084;32.908;2024-01-11T09:56:54;7.57;;;2.70;;
72584;SDS011;73873;40.084;32.908;2024-01-11T09:59:21;5.47;;;2.20;;
72584;SDS011;73873;40.084;32.908;2024-01-11T10:01:50;5.60;;;2.23;;
72584;SDS011;73873;40.084;32.908;2024-01-11T10:04:17;5.88;;;2.20;;
72584;SDS011;73873;40.084;32.908;2024-01-11T10:06:44;5.97;;;2.38;;
72584;SDS011;73873;40.084;32.908;2024-01-11T10:09:12;6.38;;;2.95;;
72584;SDS011;73873;40.084;32.908;2024-01-11T10:11:39;7.10;;;2.72;;
72584;SDS011;73873;40.084;32.908;2024-01-11T10:14:06;5.80;;;2.50;;
72584;SDS011;73873;40.084;32.908;2024-01-11T10:16:33;7.43;;;2.33;;
72584;SDS011;73873;40.084;32.908;2024-01-11T10:19:00;9.77;;;2.90;;
72584;SDS011;73873;40.084;32.908;2024-01-11T10:21:27;7.75;;;2.75;;
72584;SDS011;73873;40.084;32.908;2024-01-11T10:23:54;5.75;;;2.30;;
72584;SDS011;73873;40.084;32.908;2024-01-11T10:26:21;6.00;;;2.20;;
72584;SDS011;73873;40.084;32.908;2024-01-11T10:28:48;5.82;;;2.30;;
72584;SDS011;73873;40.084;32.908;2024-01-11T10:31:15;5.53;;;2.30;;
72584;SDS011;73873;40.084;32.908;2024-01-11T10:33:41;5.32;;;1.92;;
72584;SDS011;73873;40.084;32.908;2024-01-11T10:36:09;6.57;;;2.10;;
72584;SDS011;73873;40.084;32.908;2024-01-11T10:38:38;5.27;;;2.07;;
72584;SDS011;73873;40.084;32.908;2024-01-11T10:41:06;6.85;;;2.55;;
72584;SDS011;73873;40.084;32.908;2024-01-11T10:43:37;6.82;;;2.40;;
72584;SDS011;73873;40.084;32.908;2024-01-11T10:46:05;6.97;;;2.95;;
72584;SDS011;73873;40.084;32.908;2024-01-11T10:48:32;6.10;;;2.05;;
72584;SDS011;73873;40.084;32.908;2024-01-11T10:51:05;6.43;;;2.10;;
72584;SDS011;73873;40.084;32.908;2024-01-11T10:53:44;5.90;;;2.20;;
72584;SDS011;73873;40.084;32.908;2024-01-11T10:56:14;6.53;;;2.50;;
72584;SDS011;73873;40.084;32.908;2024-01-11T10:58:42;6.43;;;2.83;;
72584;SDS011;73873;40.084;32.908;2024-01-11T11:01:11;5.80;;;2.40;;
72584;SDS011;73873;40.084;32.908;2024-01-11T11:03:39;6.90;;;2.60;;
72584;SDS011;73873;40.084;32.908;2024-01-11T11:06:08;6.18;;;2.30;;
72584;SDS011;73873;40.084;32.908;2024-01-11T11:08:36;5.55;;;2.05;;
72584;SDS011;73873;40.084;32.908;2024-01-11T11:11:09;5.22;;;2.22;;
72584;SDS011;73873;40.084;32.908;2024-01-11T11:13:39;5.05;;;2.10;;
72584;SDS011;73873;40.084;32.908;2024-01-11T11:16:08;5.43;;;2.10;;
72584;SDS011;73873;40.084;32.908;2024-01-11T11:18:35;5.10;;;2.10;;
72584;SDS011;73873;40.084;32.908;2024-01-11T11:21:15;5.53;;;2.17;;
72584;SDS011;73873;40.084;32.908;2024-01-11T11:23:42;6.00;;;2.17;;
72584;SDS011;73873;40.084;32.908;2024-01-11T11:26:14;4.65;;;1.90;;
72584;SDS011;73873;40.084;32.908;2024-01-11T11:28:51;4.83;;;2.10;;
72584;SDS011;73873;40.084;32.908;2024-01-11T11:31:36;5.65;;;2.00;;
72584;SDS011;73873;40.084;32.908;2024-01-11T11:34:06;6.15;;;2.42;;
72584;SDS011;73873;40.084;32.908;2024-01-11T11:36:39;5.68;;;2.50;;
72584;SDS011;73873;40.084;32.908;2024-01-11T11:39:15;6.35;;;2.40;;
72584;SDS011;73873;40.084;32.908;2024-01-11T11:41:43;6.47;;;2.50;;
72584;SDS011;73873;40.084;32.908;2024-01-11T11:44:11;5.22;;;1.92;;
72584;SDS011;73873;40.084;32.908;2024-01-11T11:46:51;6.55;;;2.33;;
72584;SDS011;73873;40.084;32.908;2024-01-11T11:49:20;6.30;;;2.47;;
72584;SDS011;73873;40.084;32.908;2024-01-11T11:51:50;6.70;;;2.20;;
72584;SDS011;73873;40.084;32.908;2024-01-11T11:54:24;6.00;;;2.20;;
72584;SDS011;73873;40.084;32.908;2024-01-11T11:56:52;5.60;;;2.22;;
72584;SDS011;73873;40.084;32.908;2024-01-11T11:59:31;5.40;;;2.05;;
72584;SDS011;73873;40.084;32.908;2024-01-11T12:02:04;7.88;;;2.50;;
72584;SDS011;73873;40.084;32.908;2024-01-11T12:04:38;7.28;;;2.03;;
72584;SDS011;73873;40.084;32.908;2024-01-11T12:07:05;8.00;;;2.40;;
72584;SDS011;73873;40.084;32.908;2024-01-11T12:09:35;7.53;;;2.65;;
72584;SDS011;73873;40.084;32.908;2024-01-11T12:12:11;7.38;;;3.03;;
72584;SDS011;73873;40.084;32.908;2024-01-11T12:14:50;6.50;;;2.38;;
72584;SDS011;73873;40.084;32.908;2024-01-11T12:17:17;13.23;;;2.70;;
72584;SDS011;73873;40.084;32.908;2024-01-11T12:19:44;6.43;;;2.30;;
72584;SDS011;73873;40.084;32.908;2024-01-11T12:22:11;6.18;;;2.30;;
72584;SDS011;73873;40.084;32.908;2024-01-11T12:24:41;6.72;;;2.50;;
72584;SDS011;73873;40.084;32.908;2024-01-11T12:27:07;7.13;;;2.60;;
72584;SDS011;73873;40.084;32.908;2024-01-11T12:29:52;5.97;;;2.45;;
72584;SDS011;73873;40.084;32.908;2024-01-11T12:32:25;7.87;;;2.60;;
72584;SDS011;73873;40.084;32.908;2024-01-11T12:34:59;6.60;;;2.42;;
72584;SDS011;73873;40.084;32.908;2024-01-11T12:37:30;5.32;;;2.20;;
72584;SDS011;73873;40.084;32.908;2024-01-11T12:39:57;5.95;;;2.38;;
72584;SDS011;73873;40.084;32.908;2024-01-11T12:42:29;7.50;;;2.80;;
72584;SDS011;73873;40.084;32.908;2024-01-11T12:44:56;9.03;;;3.80;;
72584;SDS011;73873;40.084;32.908;2024-01-11T12:47:28;7.78;;;2.65;;
72584;SDS011;73873;40.084;32.908;2024-01-11T12:49:58;6.47;;;2.30;;
72584;SDS011;73873;40.084;32.908;2024-01-11T12:52:28;6.20;;;2.45;;
72584;SDS011;73873;40.084;32.908;2024-01-11T12:54:55;7.22;;;2.70;;
72584;SDS011;73873;40.084;32.908;2024-01-11T12:57:22;8.53;;;3.20;;
72584;SDS011;73873;40.084;32.908;2024-01-11T12:59:51;8.02;;;3.08;;
72584;SDS011;73873;40.084;32.908;2024-01-11T13:02:21;7.57;;;3.13;;
72584;SDS011;73873;40.084;32.908;2024-01-11T13:04:52;8.90;;;3.40;;
72584;SDS011;73873;40.084;32.908;2024-01-11T13:07:18;8.93;;;3.50;;
72584;SDS011;73873;40.084;32.908;2024-01-11T13:09:48;8.23;;;3.70;;
72584;SDS011;73873;40.084;32.908;2024-01-11T13:12:17;8.80;;;3.30;;
72584;SDS011;73873;40.084;32.908;2024-01-11T13:14:44;9.50;;;4.18;;
72584;SDS011;73873;40.084;32.908;2024-01-11T13:17:11;9.93;;;3.65;;
72584;SDS011;73873;40.084;32.908;2024-01-11T13:19:38;8.18;;;3.22;;
72584;SDS011;73873;40.084;32.908;2024-01-11T13:22:05;7.70;;;3.30;;
72584;SDS011;73873;40.084;32.908;2024-01-11T13:24:32;11.07;;;4.15;;
72584;SDS011;73873;40.084;32.908;2024-01-11T13:26:58;9.13;;;3.85;;
72584;SDS011;73873;40.084;32.908;2024-01-11T13:29:25;13.10;;;4.80;;
72584;SDS011;73873;40.084;32.908;2024-01-11T13:31:52;11.27;;;5.07;;
72584;SDS011;73873;40.084;32.908;2024-01-11T13:34:19;12.10;;;5.00;;
72584;SDS011;73873;40.084;32.908;2024-01-11T13:36:46;14.00;;;5.20;;
72584;SDS011;73873;40.084;32.908;2024-01-11T13:39:13;15.10;;;5.97;;
72584;SDS011;73873;40.084;32.908;2024-01-11T13:41:40;18.98;;;6.78;;
72584;SDS011;73873;40.084;32.908;2024-01-11T13:44:07;16.17;;;7.45;;
72584;SDS011;73873;40.084;32.908;2024-01-11T13:46:34;17.80;;;8.43;;
72584;SDS011;73873;40.084;32.908;2024-01-11T13:49:01;17.30;;;7.40;;
72584;SDS011;73873;40.084;32.908;2024-01-11T13:51:28;17.13;;;6.72;;
72584;SDS011;73873;40.084;32.908;2024-01-11T13:53:54;17.33;;;6.95;;
72584;SDS011;73873;40.084;32.908;2024-01-11T13:56:21;16.73;;;6.95;;
72584;SDS011;73873;40.084;32.908;2024-01-11T13:58:49;15.47;;;6.57;;
72584;SDS011;73873;40.084;32.908;2024-01-11T14:01:16;15.70;;;6.55;;
72584;SDS011;73873;40.084;32.908;2024-01-11T14:03:43;13.43;;;5.88;;
72584;SDS011;73873;40.084;32.908;2024-01-11T14:06:10;15.68;;;6.18;;
72584;SDS011;73873;40.084;32.908;2024-01-11T14:08:37;14.77;;;5.82;;
72584;SDS011;73873;40.084;32.908;2024-01-11T14:11:04;20.73;;;6.83;;
72584;SDS011;73873;40.084;32.908;2024-01-11T14:13:31;14.43;;;5.18;;
72584;SDS011;73873;40.084;32.908;2024-01-11T14:15:58;14.35;;;6.13;;
72584;SDS011;73873;40.084;32.908;2024-01-11T14:18:25;14.20;;;5.55;;
72584;SDS011;73873;40.084;32.908;2024-01-11T14:20:52;14.50;;;5.90;;
72584;SDS011;73873;40.084;32.908;2024-01-11T14:23:20;13.40;;;5.80;;
72584;SDS011;73873;40.084;32.908;2024-01-11T14:25:47;13.52;;;5.60;;
72584;SDS011;73873;40.084;32.908;2024-01-11T14:28:14;16.67;;;6.00;;
72584;SDS011;73873;40.084;32.908;2024-01-11T14:30:41;14.98;;;6.15;;
72584;SDS011;73873;40.084;32.908;2024-01-11T14:33:08;14.23;;;5.75;;
72584;SDS011;73873;40.084;32.908;2024-01-11T14:35:35;15.17;;;6.27;;
72584;SDS011;73873;40.084;32.908;2024-01-11T14:38:02;15.52;;;6.45;;
72584;SDS011;73873;40.084;32.908;2024-01-11T14:40:29;21.25;;;7.60;;
72584;SDS011;73873;40.084;32.908;2024-01-11T14:42:56;16.33;;;7.28;;